sensor_id;sensor_type;location;lat;lon;timestamp;pressure;altitude;pressure_sealevel;temperature;humidity
60101;BME280;45978;53.646;55.930;2022-11-24T00:00:09;99206.50;;;-1.01;91.28
60101;BME280;45978;53.646;55.930;2022-11-24T00:01:15;99213.41;;;-0.97;91.71
60101;BME280;45978;53.646;55.930;2022-11-24T00:02:17;99211.66;;;-1.01;91.88
60101;BME280;45978;53.646;55.930;2022-11-24T00:03:19;99205.66;;;-0.98;91.98
60101;BME280;45978;53.646;55.930;2022-11-24T00:04:24;99215.97;;;-0.98;92.07
60101;BME280;45978;53.646;55.930;2022-11-24T00:05:26;99212.53;;;-0.99;92.00
60101;BME280;45978;53.646;55.930;2022-11-24T00:06:29;99219.44;;;-0.95;92.01
60101;BME280;45978;53.646;55.930;2022-11-24T00:07:31;99209.13;;;-0.98;92.38
60101;BME280;45978;53.646;55.930;2022-11-24T00:08:33;99214.22;;;-1.03;92.27
60101;BME280;45978;53.646;55.930;2022-11-24T00:09:35;99207.41;;;-0.96;92.67
60101;BME280;45978;53.646;55.930;2022-11-24T00:10:36;99199.72;;;-0.94;92.57
60101;BME280;45978;53.646;55.930;2022-11-24T00:11:37;99214.28;;;-0.95;91.97
60101;BME280;45978;53.646;55.930;2022-11-24T00:12:40;99216.88;;;-0.93;92.50
60101;BME280;45978;53.646;55.930;2022-11-24T00:13:42;99216.84;;;-0.98;92.36
60101;BME280;45978;53.646;55.930;2022-11-24T00:14:44;99200.50;;;-1.00;92.44
60101;BME280;45978;53.646;55.930;2022-11-24T00:15:48;99205.66;;;-0.98;92.36
60101;BME280;45978;53.646;55.930;2022-11-24T00:16:50;99197.06;;;-0.99;92.84
60101;BME280;45978;53.646;55.930;2022-11-24T00:17:55;99200.53;;;-0.97;93.02
60101;BME280;45978;53.646;55.930;2022-11-24T00:18:58;99202.25;;;-0.97;92.93
60101;BME280;45978;53.646;55.930;2022-11-24T00:20:00;99202.22;;;-0.99;92.90
60101;BME280;45978;53.646;55.930;2022-11-24T00:21:04;99180.72;;;-1.06;93.26
60101;BME280;45978;53.646;55.930;2022-11-24T00:22:06;99192.78;;;-1.00;93.24
60101;BME280;45978;53.646;55.930;2022-11-24T00:23:07;99190.19;;;-1.03;93.10
60101;BME280;45978;53.646;55.930;2022-11-24T00:24:10;99191.91;;;-1.01;93.21
60101;BME280;45978;53.646;55.930;2022-11-24T00:25:12;99196.25;;;-0.98;93.70
60101;BME280;45978;53.646;55.930;2022-11-24T00:26:15;99200.56;;;-0.92;93.82
60101;BME280;45978;53.646;55.930;2022-11-24T00:27:16;99186.78;;;-0.97;93.87
60101;BME280;45978;53.646;55.930;2022-11-24T00:28:19;99197.97;;;-0.94;94.38
60101;BME280;45978;53.646;55.930;2022-11-24T00:29:21;99190.19;;;-0.98;94.35
60101;BME280;45978;53.646;55.930;2022-11-24T00:30:23;99182.47;;;-1.00;93.79
60101;BME280;45978;53.646;55.930;2022-11-24T00:31:33;99194.56;;;-0.90;93.94
60101;BME280;45978;53.646;55.930;2022-11-24T00:32:37;99192.84;;;-0.89;93.87
60101;BME280;45978;53.646;55.930;2022-11-24T00:33:39;99189.38;;;-0.93;94.19
60101;BME280;45978;53.646;55.930;2022-11-24T00:34:40;99196.28;;;-0.89;94.27
60101;BME280;45978;53.646;55.930;2022-11-24T00:35:42;99179.81;;;-1.09;94.65
60101;BME280;45978;53.646;55.930;2022-11-24T00:36:44;99196.25;;;-0.98;94.65
60101;BME280;45978;53.646;55.930;2022-11-24T00:37:45;99166.13;;;-1.05;94.50
60101;BME280;45978;53.646;55.930;2022-11-24T00:38:47;99183.41;;;-0.92;94.30
60101;BME280;45978;53.646;55.930;2022-11-24T00:39:52;99172.19;;;-1.00;94.96
60101;BME280;45978;53.646;55.930;2022-11-24T00:40:54;99173.09;;;-0.90;94.43
60101;BME280;45978;53.646;55.930;2022-11-24T00:41:55;99179.91;;;-0.97;94.78
60101;BME280;45978;53.646;55.930;2022-11-24T00:42:58;99173.94;;;-0.94;95.14
60101;BME280;45978;53.646;55.930;2022-11-24T00:44:00;99169.63;;;-0.91;95.22
60101;BME280;45978;53.646;55.930;2022-11-24T00:45:02;99171.41;;;-0.84;94.40
60101;BME280;45978;53.646;55.930;2022-11-24T00:46:06;99180.03;;;-0.80;94.33
60101;BME280;45978;53.646;55.930;2022-11-24T00:47:09;99178.31;;;-0.78;94.78
60101;BME280;45978;53.646;55.930;2022-11-24T00:48:10;99177.38;;;-0.89;94.74
60101;BME280;45978;53.646;55.930;2022-11-24T00:49:12;99166.22;;;-0.90;94.12
60101;BME280;45978;53.646;55.930;2022-11-24T00:50:13;99178.31;;;-0.83;94.77
60101;BME280;45978;53.646;55.930;2022-11-24T00:51:17;99179.16;;;-0.82;94.72
60101;BME280;45978;53.646;55.930;2022-11-24T00:52:19;99171.41;;;-0.88;94.60
60101;BME280;45978;53.646;55.930;2022-11-24T00:53:21;99171.44;;;-0.79;94.19
60101;BME280;45978;53.646;55.930;2022-11-24T00:54:22;99174.00;;;-0.79;94.37
60101;BME280;45978;53.646;55.930;2022-11-24T00:55:26;99167.16;;;-0.80;94.26
60101;BME280;45978;53.646;55.930;2022-11-24T00:56:29;99180.06;;;-0.75;94.55
60101;BME280;45978;53.646;55.930;2022-11-24T00:57:33;99173.97;;;-0.87;94.88
60101;BME280;45978;53.646;55.930;2022-11-24T00:58:35;99161.94;;;-0.88;94.26
60101;BME280;45978;53.646;55.930;2022-11-24T00:59:37;99168.00;;;-0.83;94.54
60101;BME280;45978;53.646;55.930;2022-11-24T01:00:39;99162.78;;;-0.89;94.39
60101;BME280;45978;53.646;55.930;2022-11-24T01:01:40;99168.81;;;-0.88;94.57
60101;BME280;45978;53.646;55.930;2022-11-24T01:02:42;99167.97;;;-0.86;94.85
60101;BME280;45978;53.646;55.930;2022-11-24T01:03:44;99165.38;;;-0.87;94.68
60101;BME280;45978;53.646;55.930;2022-11-24T01:04:47;99168.81;;;-0.87;95.15
60101;BME280;45978;53.646;55.930;2022-11-24T01:05:49;99152.44;;;-0.98;94.59
60101;BME280;45978;53.646;55.930;2022-11-24T01:06:51;99160.16;;;-0.95;94.34
60101;BME280;45978;53.646;55.930;2022-11-24T01:07:52;99157.59;;;-0.98;94.79
60101;BME280;45978;53.646;55.930;2022-11-24T01:08:55;99161.03;;;-0.96;94.61
60101;BME280;45978;53.646;55.930;2022-11-24T01:09:59;99151.59;;;-0.95;94.38
60101;BME280;45978;53.646;55.930;2022-11-24T01:12:18;99171.41;;;-0.88;94.68
60101;BME280;45978;53.646;55.930;2022-11-24T01:13:19;99154.19;;;-0.94;94.65
60101;BME280;45978;53.646;55.930;2022-11-24T01:14:22;99149.00;;;-0.97;94.93
60101;BME280;45978;53.646;55.930;2022-11-24T01:15:25;99156.78;;;-0.88;95.01
60101;BME280;45978;53.646;55.930;2022-11-24T01:16:33;99144.72;;;-0.93;94.43
60101;BME280;45978;53.646;55.930;2022-11-24T01:17:35;99135.31;;;-0.87;94.62
60101;BME280;45978;53.646;55.930;2022-11-24T01:18:37;99144.75;;;-0.87;94.44
60101;BME280;45978;53.646;55.930;2022-11-24T01:19:38;99157.69;;;-0.83;94.63
60101;BME280;45978;53.646;55.930;2022-11-24T01:20:39;99155.13;;;-0.80;94.41
60101;BME280;45978;53.646;55.930;2022-11-24T01:21:41;99149.94;;;-0.86;94.50
60101;BME280;45978;53.646;55.930;2022-11-24T01:22:42;99149.97;;;-0.80;94.74
60101;BME280;45978;53.646;55.930;2022-11-24T01:23:44;99143.91;;;-0.86;94.18
60101;BME280;45978;53.646;55.930;2022-11-24T01:24:46;99144.75;;;-0.89;94.09
60101;BME280;45978;53.646;55.930;2022-11-24T01:25:47;99143.88;;;-0.89;94.60
60101;BME280;45978;53.646;55.930;2022-11-24T01:26:49;99144.75;;;-0.87;94.37
60101;BME280;45978;53.646;55.930;2022-11-24T01:27:50;99145.63;;;-0.85;94.44
60101;BME280;45978;53.646;55.930;2022-11-24T01:28:56;99149.06;;;-0.85;94.17
60101;BME280;45978;53.646;55.930;2022-11-24T01:29:59;99146.50;;;-0.83;93.99
60101;BME280;45978;53.646;55.930;2022-11-24T01:31:05;99143.09;;;-0.82;94.08
60101;BME280;45978;53.646;55.930;2022-11-24T01:32:07;99134.50;;;-0.80;94.33
60101;BME280;45978;53.646;55.930;2022-11-24T01:33:09;99139.66;;;-0.80;94.25
60101;BME280;45978;53.646;55.930;2022-11-24T01:34:10;99132.78;;;-0.81;94.14
60101;BME280;45978;53.646;55.930;2022-11-24T01:35:13;99125.91;;;-0.77;94.67
60101;BME280;45978;53.646;55.930;2022-11-24T01:36:16;99133.66;;;-0.74;94.33
60101;BME280;45978;53.646;55.930;2022-11-24T01:37:18;99125.09;;;-0.74;94.27
60101;BME280;45978;53.646;55.930;2022-11-24T01:38:20;99133.69;;;-0.68;94.20
60101;BME280;45978;53.646;55.930;2022-11-24T01:39:21;99119.97;;;-0.68;94.13
60101;BME280;45978;53.646;55.930;2022-11-24T01:40:23;99126.88;;;-0.63;94.12
60101;BME280;45978;53.646;55.930;2022-11-24T01:41:25;99126.84;;;-0.64;93.60
60101;BME280;45978;53.646;55.930;2022-11-24T01:42:38;99140.66;;;-0.54;93.99
60101;BME280;45978;53.646;55.930;2022-11-24T01:43:41;99130.31;;;-0.59;93.94
60101;BME280;45978;53.646;55.930;2022-11-24T01:44:43;99131.16;;;-0.62;94.21
60101;BME280;45978;53.646;55.930;2022-11-24T01:45:47;99129.44;;;-0.60;94.01
60101;BME280;45978;53.646;55.930;2022-11-24T01:46:57;99137.16;;;-0.61;94.05
60101;BME280;45978;53.646;55.930;2022-11-24T01:48:04;99127.69;;;-0.68;93.53
60101;BME280;45978;53.646;55.930;2022-11-24T01:49:22;99141.47;;;-0.60;93.58
60101;BME280;45978;53.646;55.930;2022-11-24T01:50:28;99120.81;;;-0.66;93.87
60101;BME280;45978;53.646;55.930;2022-11-24T01:51:32;99126.88;;;-0.63;93.76
60101;BME280;45978;53.646;55.930;2022-11-24T01:52:41;99140.63;;;-0.56;93.75
60101;BME280;45978;53.646;55.930;2022-11-24T01:53:50;99129.44;;;-0.60;93.67
60101;BME280;45978;53.646;55.930;2022-11-24T01:54:59;99137.16;;;-0.61;93.47
60101;BME280;45978;53.646;55.930;2022-11-24T01:56:04;99129.44;;;-0.63;93.03
60101;BME280;45978;53.646;55.930;2022-11-24T01:57:15;99135.47;;;-0.56;92.95
60101;BME280;45978;53.646;55.930;2022-11-24T01:58:26;99136.34;;;-0.58;92.98
60101;BME280;45978;53.646;55.930;2022-11-24T01:59:30;99119.13;;;-0.58;92.77
60101;BME280;45978;53.646;55.930;2022-11-24T02:00:35;99126.03;;;-0.49;92.99
60101;BME280;45978;53.646;55.930;2022-11-24T02:01:39;99120.06;;;-0.44;92.80
60101;BME280;45978;53.646;55.930;2022-11-24T02:02:42;99130.41;;;-0.41;92.64
60101;BME280;45978;53.646;55.930;2022-11-24T02:03:47;99109.72;;;-0.53;92.43
60101;BME280;45978;53.646;55.930;2022-11-24T02:04:50;99126.09;;;-0.40;92.56
60101;BME280;45978;53.646;55.930;2022-11-24T02:06:15;99130.41;;;-0.36;92.63
60101;BME280;45978;53.646;55.930;2022-11-24T02:07:20;99092.53;;;-0.57;92.58
60101;BME280;45978;53.646;55.930;2022-11-24T02:08:30;99116.63;;;-0.40;92.32
60101;BME280;45978;53.646;55.930;2022-11-24T02:09:45;99126.09;;;-0.40;92.41
60101;BME280;45978;53.646;55.930;2022-11-24T02:10:49;99110.63;;;-0.43;92.37
60101;BME280;45978;53.646;55.930;2022-11-24T02:11:52;99101.97;;;-0.50;91.99
60101;BME280;45978;53.646;55.930;2022-11-24T02:12:54;99120.97;;;-0.37;92.07
60101;BME280;45978;53.646;55.930;2022-11-24T02:13:58;99120.91;;;-0.42;92.01
60101;BME280;45978;53.646;55.930;2022-11-24T02:14:59;99112.34;;;-0.39;92.47
60101;BME280;45978;53.646;55.930;2022-11-24T02:16:02;99114.06;;;-0.41;92.28
60101;BME280;45978;53.646;55.930;2022-11-24T02:17:04;99095.13;;;-0.51;91.71
60101;BME280;45978;53.646;55.930;2022-11-24T02:18:08;99114.91;;;-0.44;92.38
60101;BME280;45978;53.646;55.930;2022-11-24T02:19:28;99087.31;;;-0.63;92.30
60101;BME280;45978;53.646;55.930;2022-11-24T02:20:34;99107.97;;;-0.55;92.14
60101;BME280;45978;53.646;55.930;2022-11-24T02:21:35;99097.66;;;-0.60;92.05
60101;BME280;45978;53.646;55.930;2022-11-24T02:24:12;99104.56;;;-0.50;92.39
60101;BME280;45978;53.646;55.930;2022-11-24T02:26:56;99101.97;;;-0.56;92.46
60101;BME280;45978;53.646;55.930;2022-11-24T02:27:59;99083.88;;;-0.68;92.47
60101;BME280;45978;53.646;55.930;2022-11-24T02:29:02;99093.38;;;-0.53;92.18
60101;BME280;45978;53.646;55.930;2022-11-24T02:30:04;99090.81;;;-0.50;92.43
60101;BME280;45978;53.646;55.930;2022-11-24T02:31:06;99099.41;;;-0.50;92.17
60101;BME280;45978;53.646;55.930;2022-11-24T02:32:09;99105.44;;;-0.45;92.50
60101;BME280;45978;53.646;55.930;2022-11-24T02:33:12;99096.84;;;-0.47;92.63
60101;BME280;45978;53.646;55.930;2022-11-24T02:34:14;99095.16;;;-0.38;92.65
60101;BME280;45978;53.646;55.930;2022-11-24T02:35:15;99098.59;;;-0.41;92.10
60101;BME280;45978;53.646;55.930;2022-11-24T02:36:18;99104.63;;;-0.34;92.36
60101;BME280;45978;53.646;55.930;2022-11-24T02:37:19;99095.19;;;-0.35;92.06
60101;BME280;45978;53.646;55.930;2022-11-24T02:38:31;99081.38;;;-0.44;91.99
60101;BME280;45978;53.646;55.930;2022-11-24T02:39:34;99096.03;;;-0.35;92.09
60101;BME280;45978;53.646;55.930;2022-11-24T02:40:37;99087.41;;;-0.45;92.11
60101;BME280;45978;53.646;55.930;2022-11-24T02:41:46;99091.72;;;-0.39;92.02
60101;BME280;45978;53.646;55.930;2022-11-24T02:42:51;99092.59;;;-0.35;91.89
60101;BME280;45978;53.646;55.930;2022-11-24T02:43:56;99092.59;;;-0.32;92.24
60101;BME280;45978;53.646;55.930;2022-11-24T02:44:59;99089.16;;;-0.33;92.20
60101;BME280;45978;53.646;55.930;2022-11-24T02:46:02;99091.72;;;-0.39;91.77
60101;BME280;45978;53.646;55.930;2022-11-24T02:47:11;99089.13;;;-0.37;92.13
60101;BME280;45978;53.646;55.930;2022-11-24T02:48:15;99083.09;;;-0.47;92.01
60101;BME280;45978;53.646;55.930;2022-11-24T02:49:17;99087.41;;;-0.38;92.44
60101;BME280;45978;53.646;55.930;2022-11-24T02:50:21;99073.63;;;-0.44;92.17
60101;BME280;45978;53.646;55.930;2022-11-24T02:51:22;99084.84;;;-0.34;91.84
60101;BME280;45978;53.646;55.930;2022-11-24T02:52:26;99077.91;;;-0.46;92.11
60101;BME280;45978;53.646;55.930;2022-11-24T02:53:27;99083.94;;;-0.44;91.96
60101;BME280;45978;53.646;55.930;2022-11-24T02:54:29;99080.50;;;-0.44;92.18
60101;BME280;45978;53.646;55.930;2022-11-24T02:55:32;99075.38;;;-0.47;92.04
60101;BME280;45978;53.646;55.930;2022-11-24T02:56:33;99071.88;;;-0.54;92.24
60101;BME280;45978;53.646;55.930;2022-11-24T02:57:35;99071.88;;;-0.55;92.06
60101;BME280;45978;53.646;55.930;2022-11-24T02:58:37;99072.75;;;-0.50;92.11
60101;BME280;45978;53.646;55.930;2022-11-24T02:59:38;99084.81;;;-0.46;92.43
60101;BME280;45978;53.646;55.930;2022-11-24T03:00:40;99082.22;;;-0.52;92.35
60101;BME280;45978;53.646;55.930;2022-11-24T03:01:42;99064.16;;;-0.57;92.05
60101;BME280;45978;53.646;55.930;2022-11-24T03:02:43;99066.72;;;-0.55;91.92
60101;BME280;45978;53.646;55.930;2022-11-24T03:03:45;99052.94;;;-0.64;91.85
60101;BME280;45978;53.646;55.930;2022-11-24T03:04:46;99055.56;;;-0.59;92.26
60101;BME280;45978;53.646;55.930;2022-11-24T03:05:48;99054.69;;;-0.58;92.49
60101;BME280;45978;53.646;55.930;2022-11-24T03:06:49;99049.53;;;-0.58;92.11
60101;BME280;45978;53.646;55.930;2022-11-24T03:07:51;99074.50;;;-0.43;92.06
60101;BME280;45978;53.646;55.930;2022-11-24T03:08:53;99057.31;;;-0.40;92.09
60101;BME280;45978;53.646;55.930;2022-11-24T03:09:54;99048.72;;;-0.42;92.86
60101;BME280;45978;53.646;55.930;2022-11-24T03:10:55;99056.47;;;-0.38;91.85
60101;BME280;45978;53.646;55.930;2022-11-24T03:11:58;99055.63;;;-0.33;92.04
60101;BME280;45978;53.646;55.930;2022-11-24T03:12:59;99050.47;;;-0.31;92.24
60101;BME280;45978;53.646;55.930;2022-11-24T03:14:01;99059.06;;;-0.29;91.87
60101;BME280;45978;53.646;55.930;2022-11-24T03:15:04;99047.03;;;-0.33;91.95
60101;BME280;45978;53.646;55.930;2022-11-24T03:16:08;99050.44;;;-0.36;92.06
60101;BME280;45978;53.646;55.930;2022-11-24T03:17:10;99054.78;;;-0.33;92.03
60101;BME280;45978;53.646;55.930;2022-11-24T03:18:12;99047.88;;;-0.33;92.09
60101;BME280;45978;53.646;55.930;2022-11-24T03:19:13;99045.31;;;-0.31;91.31
60101;BME280;45978;53.646;55.930;2022-11-24T03:20:16;99045.31;;;-0.27;91.40
60101;BME280;45978;53.646;55.930;2022-11-24T03:21:17;99053.06;;;-0.25;91.28
60101;BME280;45978;53.646;55.930;2022-11-24T03:22:19;99044.47;;;-0.29;91.30
60101;BME280;45978;53.646;55.930;2022-11-24T03:23:22;99028.94;;;-0.38;91.74
60101;BME280;45978;53.646;55.930;2022-11-24T03:24:23;99039.28;;;-0.41;91.53
60101;BME280;45978;53.646;55.930;2022-11-24T03:25:25;99042.72;;;-0.39;91.40
60101;BME280;45978;53.646;55.930;2022-11-24T03:26:28;99043.59;;;-0.35;91.43
60101;BME280;45978;53.646;55.930;2022-11-24T03:27:30;99034.94;;;-0.44;91.26
60101;BME280;45978;53.646;55.930;2022-11-24T03:28:31;99041.84;;;-0.38;91.20
60101;BME280;45978;53.646;55.930;2022-11-24T03:29:33;99038.41;;;-0.45;91.07
60101;BME280;45978;53.646;55.930;2022-11-24T03:30:34;99036.66;;;-0.46;91.30
60101;BME280;45978;53.646;55.930;2022-11-24T03:31:36;99054.78;;;-0.33;91.11
60101;BME280;45978;53.646;55.930;2022-11-24T03:32:38;99050.47;;;-0.39;90.96
60101;BME280;45978;53.646;55.930;2022-11-24T03:33:39;99040.97;;;-0.45;90.88
60101;BME280;45978;53.646;55.930;2022-11-24T03:34:40;99050.44;;;-0.37;91.22
60101;BME280;45978;53.646;55.930;2022-11-24T03:35:43;99060.78;;;-0.28;90.87
60101;BME280;45978;53.646;55.930;2022-11-24T03:36:45;99056.50;;;-0.29;90.98
60101;BME280;45978;53.646;55.930;2022-11-24T03:37:47;99060.81;;;-0.24;90.69
60101;BME280;45978;53.646;55.930;2022-11-24T03:38:48;99047.03;;;-0.27;90.63
60101;BME280;45978;53.646;55.930;2022-11-24T03:39:50;99057.38;;;-0.23;91.07
60101;BME280;45978;53.646;55.930;2022-11-24T03:40:52;99040.16;;;-0.31;90.96
60101;BME280;45978;53.646;55.930;2022-11-24T03:41:53;99048.75;;;-0.26;91.10
60101;BME280;45978;53.646;55.930;2022-11-24T03:42:56;99061.69;;;-0.17;90.58
60101;BME280;45978;53.646;55.930;2022-11-24T03:43:57;99053.06;;;-0.14;90.92
60101;BME280;45978;53.646;55.930;2022-11-24T03:45:00;99061.69;;;-0.12;90.47
60101;BME280;45978;53.646;55.930;2022-11-24T03:46:02;99053.94;;;-0.11;90.28
60101;BME280;45978;53.646;55.930;2022-11-24T03:47:04;99051.34;;;-0.14;90.60
60101;BME280;45978;53.646;55.930;2022-11-24T03:48:06;99051.38;;;-0.11;90.54
60101;BME280;45978;53.646;55.930;2022-11-24T03:49:08;99052.22;;;-0.04;90.10
60101;BME280;45978;53.646;55.930;2022-11-24T03:50:10;99061.72;;;-0.02;90.07
60101;BME280;45978;53.646;55.930;2022-11-24T03:51:11;99056.56;;;-0.02;90.46
60101;BME280;45978;53.646;55.930;2022-11-24T03:52:13;99037.63;;;-0.10;90.60
60101;BME280;45978;53.646;55.930;2022-11-24T03:53:14;99049.66;;;-0.03;90.68
60101;BME280;45978;53.646;55.930;2022-11-24T03:54:16;99059.16;;;0.06;90.39
60101;BME280;45978;53.646;55.930;2022-11-24T03:55:17;99060.84;;;0.07;90.25
60101;BME280;45978;53.646;55.930;2022-11-24T03:56:19;99057.41;;;0.10;90.46
60101;BME280;45978;53.646;55.930;2022-11-24T03:57:21;99063.44;;;0.12;90.24
60101;BME280;45978;53.646;55.930;2022-11-24T03:58:24;99051.38;;;0.03;89.86
60101;BME280;45978;53.646;55.930;2022-11-24T03:59:27;99049.66;;;-0.03;89.79
60101;BME280;45978;53.646;55.930;2022-11-24T04:00:29;99055.72;;;0.04;89.76
60101;BME280;45978;53.646;55.930;2022-11-24T04:01:31;99041.06;;;0.00;89.84
60101;BME280;45978;53.646;55.930;2022-11-24T04:02:32;99051.38;;;0.09;90.03
60101;BME280;45978;53.646;55.930;2022-11-24T04:03:34;99044.50;;;0.10;89.86
60101;BME280;45978;53.646;55.930;2022-11-24T04:04:35;99036.75;;;0.04;89.72
60101;BME280;45978;53.646;55.930;2022-11-24T04:05:38;99035.91;;;0.05;90.00
60101;BME280;45978;53.646;55.930;2022-11-24T04:06:40;99038.47;;;0.08;89.46
60101;BME280;45978;53.646;55.930;2022-11-24T04:07:42;99033.31;;;0.05;89.67
60101;BME280;45978;53.646;55.930;2022-11-24T04:08:43;99026.44;;;0.01;90.19
60101;BME280;45978;53.646;55.930;2022-11-24T04:09:45;99035.91;;;0.06;89.36
60101;BME280;45978;53.646;55.930;2022-11-24T04:10:49;99032.44;;;-0.07;89.05
60101;BME280;45978;53.646;55.930;2022-11-24T04:11:51;99027.28;;;-0.07;89.48
60101;BME280;45978;53.646;55.930;2022-11-24T04:13:13;99042.81;;;0.04;89.43
60101;BME280;45978;53.646;55.930;2022-11-24T04:14:14;99024.69;;;-0.02;89.15
60101;BME280;45978;53.646;55.930;2022-11-24T04:15:17;99035.91;;;0.03;89.27
60101;BME280;45978;53.646;55.930;2022-11-24T04:16:19;99023.84;;;0.04;89.21
60101;BME280;45978;53.646;55.930;2022-11-24T04:17:20;99029.00;;;0.05;89.15
60101;BME280;45978;53.646;55.930;2022-11-24T04:18:21;99019.56;;;-0.04;89.04
60101;BME280;45978;53.646;55.930;2022-11-24T04:19:23;99030.75;;;0.05;89.13
60101;BME280;45978;53.646;55.930;2022-11-24T04:20:25;99035.03;;;0.06;88.93
60101;BME280;45978;53.646;55.930;2022-11-24T04:21:26;99035.91;;;-0.02;88.83
60101;BME280;45978;53.646;55.930;2022-11-24T04:22:27;99033.31;;;-0.02;89.48
60101;BME280;45978;53.646;55.930;2022-11-24T04:23:29;99042.78;;;0.06;88.88
60101;BME280;45978;53.646;55.930;2022-11-24T04:24:30;99034.16;;;0.04;88.90
60101;BME280;45978;53.646;55.930;2022-11-24T04:25:31;99035.03;;;0.07;88.48
60101;BME280;45978;53.646;55.930;2022-11-24T04:26:33;99028.16;;;0.02;89.15
60101;BME280;45978;53.646;55.930;2022-11-24T04:27:36;99029.84;;;-0.02;88.57
60101;BME280;45978;53.646;55.930;2022-11-24T04:28:37;99023.84;;;-0.12;88.77
60101;BME280;45978;53.646;55.930;2022-11-24T04:29:39;99031.59;;;-0.07;88.45
60101;BME280;45978;53.646;55.930;2022-11-24T04:30:40;99036.75;;;-0.01;88.98
60101;BME280;45978;53.646;55.930;2022-11-24T04:31:44;99033.31;;;-0.08;88.55
60101;BME280;45978;53.646;55.930;2022-11-24T04:32:45;99031.59;;;-0.03;88.74
60101;BME280;45978;53.646;55.930;2022-11-24T04:33:47;99032.44;;;-0.07;88.54
60101;BME280;45978;53.646;55.930;2022-11-24T04:34:49;99026.44;;;-0.12;89.10
60101;BME280;45978;53.646;55.930;2022-11-24T04:35:53;99024.69;;;-0.19;88.60
60101;BME280;45978;53.646;55.930;2022-11-24T04:36:54;99028.13;;;-0.14;88.71
60101;BME280;45978;53.646;55.930;2022-11-24T04:37:56;99035.03;;;-0.11;88.57
60101;BME280;45978;53.646;55.930;2022-11-24T04:38:57;99026.44;;;-0.13;89.04
60101;BME280;45978;53.646;55.930;2022-11-24T04:40:00;99013.53;;;-0.19;88.75
60101;BME280;45978;53.646;55.930;2022-11-24T04:41:02;99026.41;;;-0.18;88.77
60101;BME280;45978;53.646;55.930;2022-11-24T04:42:04;99030.69;;;-0.20;88.60
60101;BME280;45978;53.646;55.930;2022-11-24T04:43:06;99020.38;;;-0.26;88.94
60101;BME280;45978;53.646;55.930;2022-11-24T04:44:07;99022.97;;;-0.22;88.55
60101;BME280;45978;53.646;55.930;2022-11-24T04:45:10;99018.69;;;-0.19;88.80
60101;BME280;45978;53.646;55.930;2022-11-24T04:46:11;99022.97;;;-0.12;88.00
60101;BME280;45978;53.646;55.930;2022-11-24T04:47:19;99035.91;;;-0.03;88.46
60101;BME280;45978;53.646;55.930;2022-11-24T04:48:21;99026.44;;;-0.03;88.46
60101;BME280;45978;53.646;55.930;2022-11-24T04:49:24;99030.75;;;0.00;88.70
60101;BME280;45978;53.646;55.930;2022-11-24T04:50:27;99034.16;;;0.04;88.43
60101;BME280;45978;53.646;55.930;2022-11-24T04:51:30;99035.91;;;0.08;88.17
60101;BME280;45978;53.646;55.930;2022-11-24T04:52:31;99026.44;;;0.02;87.73
60101;BME280;45978;53.646;55.930;2022-11-24T04:53:33;99031.59;;;0.05;87.91
60101;BME280;45978;53.646;55.930;2022-11-24T04:54:34;99034.19;;;0.08;88.09
60101;BME280;45978;53.646;55.930;2022-11-24T04:55:37;99031.59;;;0.05;87.68
60101;BME280;45978;53.646;55.930;2022-11-24T04:56:40;99029.00;;;0.10;87.84
60101;BME280;45978;53.646;55.930;2022-11-24T04:57:42;99029.00;;;0.10;87.65
60101;BME280;45978;53.646;55.930;2022-11-24T04:58:47;99016.97;;;0.07;87.50
60101;BME280;45978;53.646;55.930;2022-11-24T04:59:49;99021.28;;;0.14;87.55
60101;BME280;45978;53.646;55.930;2022-11-24T05:00:50;99020.44;;;0.14;87.77
60101;BME280;45978;53.646;55.930;2022-11-24T05:01:52;99010.09;;;0.09;87.30
60101;BME280;45978;53.646;55.930;2022-11-24T05:02:53;99030.75;;;0.18;87.62
60101;BME280;45978;53.646;55.930;2022-11-24T05:03:55;99018.69;;;0.13;86.87
60101;BME280;45978;53.646;55.930;2022-11-24T05:04:57;99030.72;;;0.22;87.07
60101;BME280;45978;53.646;55.930;2022-11-24T05:05:58;99028.16;;;0.22;87.30
60101;BME280;45978;53.646;55.930;2022-11-24T05:06:59;99020.41;;;0.17;86.88
60101;BME280;45978;53.646;55.930;2022-11-24T05:08:01;98998.91;;;0.09;86.76
60101;BME280;45978;53.646;55.930;2022-11-24T05:09:03;99039.34;;;0.34;86.29
60101;BME280;45978;53.646;55.930;2022-11-24T05:10:05;99016.13;;;0.14;85.98
60101;BME280;45978;53.646;55.930;2022-11-24T05:11:25;99020.44;;;0.18;86.65
60101;BME280;45978;53.646;55.930;2022-11-24T05:12:27;99026.44;;;0.25;86.33
60101;BME280;45978;53.646;55.930;2022-11-24T05:13:32;99040.19;;;0.33;86.70
60101;BME280;45978;53.646;55.930;2022-11-24T05:14:33;99013.53;;;0.24;86.13
60101;BME280;45978;53.646;55.930;2022-11-24T05:15:47;99027.31;;;0.30;86.76
60101;BME280;45978;53.646;55.930;2022-11-24T05:16:50;99025.56;;;0.35;86.90
60101;BME280;45978;53.646;55.930;2022-11-24T05:17:56;99035.06;;;0.38;86.63
60101;BME280;45978;53.646;55.930;2022-11-24T05:19:00;99030.72;;;0.35;86.43
60101;BME280;45978;53.646;55.930;2022-11-24T05:20:04;99029.03;;;0.34;86.76
60101;BME280;45978;53.646;55.930;2022-11-24T05:21:08;99027.28;;;0.35;86.28
60101;BME280;45978;53.646;55.930;2022-11-24T05:22:09;99027.31;;;0.30;86.66
60101;BME280;45978;53.646;55.930;2022-11-24T05:23:11;99015.25;;;0.29;86.70
60101;BME280;45978;53.646;55.930;2022-11-24T05:24:16;99021.28;;;0.28;86.79
60101;BME280;45978;53.646;55.930;2022-11-24T05:25:18;99027.31;;;0.36;87.03
60101;BME280;45978;53.646;55.930;2022-11-24T05:26:19;99011.81;;;0.26;86.75
60101;BME280;45978;53.646;55.930;2022-11-24T05:27:20;99031.59;;;0.41;86.91
60101;BME280;45978;53.646;55.930;2022-11-24T05:28:22;99041.06;;;0.46;86.71
60101;BME280;45978;53.646;55.930;2022-11-24T05:29:26;99030.72;;;0.35;86.56
60101;BME280;45978;53.646;55.930;2022-11-24T05:30:29;99029.88;;;0.38;86.51
60101;BME280;45978;53.646;55.930;2022-11-24T05:31:31;99023.00;;;0.32;86.65
60101;BME280;45978;53.646;55.930;2022-11-24T05:32:32;99032.47;;;0.43;86.74
60101;BME280;45978;53.646;55.930;2022-11-24T05:33:33;98977.38;;;0.19;87.21
60101;BME280;45978;53.646;55.930;2022-11-24T05:34:35;98978.25;;;0.16;87.36